Main page
METAR-TAF:

METAR-TAF

Airports :

Casement Aerodrome

Dublin, Ireland

latitude: 53-18-06N, longitude: 6-27-04W, elevation: 97 m

Current weather observation

The report was made 1 hour and 8 minutes ago, at 21:00 UTC
Wind 9 kt from the West/Southwest
Temperature 1°C
Humidity 100%
Pressure 999 hPa
Visibility 10 km or more
Few clouds at a height of 1500 ft
Scattered clouds at a height of 4000 ft
light rain showers

METAR: EIME 222100Z 25009KT 9999 -SHRA FEW015 SCT040 01/01 Q0999

Time: 22:08 (22:08 UTC)

Forecast

The report was made 2 hours and 8 minutes ago, at 20:00 UTC
Forecast valid from 22 at 21 UTC to 23 at 06 UTC
Wind 10 kt from the West/Southwest
Visibility 10 km or more
Few clouds at a height of 1500 ft

TAF: EIME 222000Z 2221/2306 24010KT 9999 FEW015

Weather observations and forecasts of more than 4000 airports (METAR and TAF reports).

The available stations are represented by yellow and red dots on the map.

Hover mouse over dot to see the name of the station.

Then click to see weather observations and forecasts.

To change the map : click on the green buttons with a black cross to zoom in, on the green button with a dash to zoom out, or on the green arrows for adjacent maps.


METAR-TAF: